Terminal Aerodrome Forecast
Issued by NWS

Home | Current Version | Previous Version | Text Only | Print | Product List | Glossary On
Versions: 1 2 3 4 5 6 7 8 9 10 11 12 13 14 15 16 17 18 19 20 21 22 23 24 25 26 27 28 29 30 31 32 33 34 35 36 37 38
000
FTUS43 KICT 260758 AAA
TAFHUT
TAF AMD
KHUT 260758Z 2608/2706 01016G24KT 2SM -TSSNPL BR OVC015CB
     FM261000 01016KT 6SM -SN BR OVC015
     FM270000 36006KT 6SM BR OVC050=

USA.gov is the U.S. government's official web portal to all federal, state and local government web resources and services.